sensor_id;sensor_type;location;lat;lon;timestamp;P1;durP1;ratioP1;P2;durP2;ratioP2
31390;SDS011;18022;45.492;11.548;2022-12-11T00:01:36;18.58;;;11.27;;
31390;SDS011;18022;45.492;11.548;2022-12-11T00:04:02;15.80;;;11.25;;
31390;SDS011;18022;45.492;11.548;2022-12-11T00:06:27;15.07;;;11.40;;
31390;SDS011;18022;45.492;11.548;2022-12-11T00:08:53;19.83;;;12.13;;
31390;SDS011;18022;45.492;11.548;2022-12-11T00:11:19;20.38;;;13.13;;
31390;SDS011;18022;45.492;11.548;2022-12-11T00:13:46;18.77;;;13.25;;
31390;SDS011;18022;45.492;11.548;2022-12-11T00:16:12;16.58;;;11.93;;
31390;SDS011;18022;45.492;11.548;2022-12-11T00:18:38;13.48;;;10.43;;
31390;SDS011;18022;45.492;11.548;2022-12-11T00:21:05;13.10;;;9.75;;
31390;SDS011;18022;45.492;11.548;2022-12-11T00:25:58;11.27;;;9.20;;
31390;SDS011;18022;45.492;11.548;2022-12-11T00:28:24;13.65;;;10.07;;
31390;SDS011;18022;45.492;11.548;2022-12-11T00:30:50;14.20;;;10.30;;
31390;SDS011;18022;45.492;11.548;2022-12-11T00:33:16;14.23;;;10.40;;
31390;SDS011;18022;45.492;11.548;2022-12-11T00:35:43;11.50;;;9.70;;
31390;SDS011;18022;45.492;11.548;2022-12-11T00:38:13;12.57;;;9.77;;
31390;SDS011;18022;45.492;11.548;2022-12-11T00:40:41;12.77;;;10.18;;
31390;SDS011;18022;45.492;11.548;2022-12-11T00:43:08;12.93;;;10.15;;
31390;SDS011;18022;45.492;11.548;2022-12-11T00:45:40;13.30;;;10.25;;
31390;SDS011;18022;45.492;11.548;2022-12-11T00:48:07;10.75;;;9.32;;
31390;SDS011;18022;45.492;11.548;2022-12-11T00:50:34;13.98;;;9.40;;
31390;SDS011;18022;45.492;11.548;2022-12-11T00:53:00;12.40;;;10.45;;
31390;SDS011;18022;45.492;11.548;2022-12-11T00:55:26;15.10;;;10.60;;
31390;SDS011;18022;45.492;11.548;2022-12-11T00:57:53;14.15;;;10.70;;
31390;SDS011;18022;45.492;11.548;2022-12-11T01:00:19;13.05;;;10.32;;
31390;SDS011;18022;45.492;11.548;2022-12-11T01:02:46;14.57;;;10.88;;
31390;SDS011;18022;45.492;11.548;2022-12-11T01:05:13;13.32;;;10.65;;
31390;SDS011;18022;45.492;11.548;2022-12-11T01:07:39;11.75;;;9.57;;
31390;SDS011;18022;45.492;11.548;2022-12-11T01:10:05;13.65;;;10.20;;
31390;SDS011;18022;45.492;11.548;2022-12-11T01:12:52;13.07;;;9.68;;
31390;SDS011;18022;45.492;11.548;2022-12-11T01:15:20;13.13;;;10.50;;
31390;SDS011;18022;45.492;11.548;2022-12-11T01:17:47;15.65;;;10.13;;
31390;SDS011;18022;45.492;11.548;2022-12-11T01:20:14;12.80;;;10.45;;
31390;SDS011;18022;45.492;11.548;2022-12-11T01:22:40;11.65;;;9.88;;
31390;SDS011;18022;45.492;11.548;2022-12-11T01:25:06;13.43;;;10.48;;
31390;SDS011;18022;45.492;11.548;2022-12-11T01:27:33;15.13;;;11.13;;
31390;SDS011;18022;45.492;11.548;2022-12-11T01:29:59;16.75;;;10.93;;
31390;SDS011;18022;45.492;11.548;2022-12-11T01:32:26;14.18;;;10.77;;
31390;SDS011;18022;45.492;11.548;2022-12-11T01:34:52;16.15;;;10.82;;
31390;SDS011;18022;45.492;11.548;2022-12-11T01:37:18;12.48;;;9.85;;
31390;SDS011;18022;45.492;11.548;2022-12-11T01:39:45;10.88;;;9.10;;
31390;SDS011;18022;45.492;11.548;2022-12-11T01:42:14;11.32;;;9.15;;
31390;SDS011;18022;45.492;11.548;2022-12-11T01:47:08;13.18;;;9.65;;
31390;SDS011;18022;45.492;11.548;2022-12-11T01:49:35;11.90;;;9.68;;
31390;SDS011;18022;45.492;11.548;2022-12-11T01:52:05;12.02;;;9.82;;
31390;SDS011;18022;45.492;11.548;2022-12-11T01:54:36;12.90;;;9.77;;
31390;SDS011;18022;45.492;11.548;2022-12-11T01:57:03;15.00;;;10.18;;
31390;SDS011;18022;45.492;11.548;2022-12-11T01:59:34;14.93;;;10.43;;
31390;SDS011;18022;45.492;11.548;2022-12-11T02:02:03;17.58;;;11.00;;
31390;SDS011;18022;45.492;11.548;2022-12-11T02:04:32;13.48;;;10.85;;
31390;SDS011;18022;45.492;11.548;2022-12-11T02:07:00;13.75;;;10.88;;
31390;SDS011;18022;45.492;11.548;2022-12-11T02:09:28;12.07;;;10.25;;
31390;SDS011;18022;45.492;11.548;2022-12-11T02:12:07;11.85;;;9.52;;
31390;SDS011;18022;45.492;11.548;2022-12-11T02:17:07;13.00;;;10.30;;
31390;SDS011;18022;45.492;11.548;2022-12-11T02:30:53;11.73;;;9.68;;
31390;SDS011;18022;45.492;11.548;2022-12-11T02:33:31;12.23;;;8.73;;
31390;SDS011;18022;45.492;11.548;2022-12-11T02:36:06;11.25;;;9.20;;
31390;SDS011;18022;45.492;11.548;2022-12-11T02:38:34;10.38;;;8.50;;
31390;SDS011;18022;45.492;11.548;2022-12-11T02:41:03;11.18;;;7.72;;
31390;SDS011;18022;45.492;11.548;2022-12-11T02:45:58;10.05;;;7.85;;
31390;SDS011;18022;45.492;11.548;2022-12-11T02:48:25;13.95;;;9.32;;
31390;SDS011;18022;45.492;11.548;2022-12-11T02:50:51;10.98;;;9.38;;
31390;SDS011;18022;45.492;11.548;2022-12-11T02:53:23;9.73;;;7.88;;
31390;SDS011;18022;45.492;11.548;2022-12-11T02:55:53;7.07;;;6.10;;
31390;SDS011;18022;45.492;11.548;2022-12-11T02:58:27;5.47;;;4.30;;
31390;SDS011;18022;45.492;11.548;2022-12-11T03:00:56;6.68;;;5.65;;
31390;SDS011;18022;45.492;11.548;2022-12-11T03:03:22;6.63;;;5.95;;
31390;SDS011;18022;45.492;11.548;2022-12-11T03:05:48;5.95;;;5.13;;
31390;SDS011;18022;45.492;11.548;2022-12-11T03:08:14;5.35;;;4.63;;
31390;SDS011;18022;45.492;11.548;2022-12-11T03:10:43;5.47;;;4.30;;
31390;SDS011;18022;45.492;11.548;2022-12-11T03:13:09;4.20;;;3.80;;
31390;SDS011;18022;45.492;11.548;2022-12-11T03:20:46;4.82;;;4.13;;
31390;SDS011;18022;45.492;11.548;2022-12-11T03:23:40;4.85;;;4.30;;
31390;SDS011;18022;45.492;11.548;2022-12-11T03:34:02;4.82;;;4.32;;
31390;SDS011;18022;45.492;11.548;2022-12-11T03:36:35;6.20;;;4.57;;
31390;SDS011;18022;45.492;11.548;2022-12-11T03:39:07;6.00;;;5.40;;
31390;SDS011;18022;45.492;11.548;2022-12-11T03:41:37;6.65;;;5.72;;
31390;SDS011;18022;45.492;11.548;2022-12-11T03:44:04;7.53;;;5.97;;
31390;SDS011;18022;45.492;11.548;2022-12-11T03:46:33;8.48;;;6.47;;
31390;SDS011;18022;45.492;11.548;2022-12-11T03:49:22;8.55;;;7.00;;
31390;SDS011;18022;45.492;11.548;2022-12-11T03:51:52;8.50;;;6.55;;
31390;SDS011;18022;45.492;11.548;2022-12-11T03:54:21;6.90;;;6.15;;
31390;SDS011;18022;45.492;11.548;2022-12-11T03:56:48;6.20;;;5.60;;
31390;SDS011;18022;45.492;11.548;2022-12-11T03:59:18;6.65;;;5.95;;
31390;SDS011;18022;45.492;11.548;2022-12-11T04:01:43;9.15;;;5.60;;
31390;SDS011;18022;45.492;11.548;2022-12-11T04:04:09;6.43;;;5.03;;
31390;SDS011;18022;45.492;11.548;2022-12-11T04:06:35;3.47;;;3.17;;
31390;SDS011;18022;45.492;11.548;2022-12-11T04:09:00;2.60;;;2.00;;
31390;SDS011;18022;45.492;11.548;2022-12-11T04:11:26;4.43;;;3.50;;
31390;SDS011;18022;45.492;11.548;2022-12-11T04:14:05;4.55;;;4.10;;
31390;SDS011;18022;45.492;11.548;2022-12-11T04:16:54;5.88;;;4.32;;
31390;SDS011;18022;45.492;11.548;2022-12-11T04:19:22;2.80;;;2.60;;
31390;SDS011;18022;45.492;11.548;2022-12-11T04:22:08;1.30;;;1.20;;
31390;SDS011;18022;45.492;11.548;2022-12-11T04:24:58;1.20;;;1.10;;
31390;SDS011;18022;45.492;11.548;2022-12-11T04:27:27;4.00;;;1.48;;
31390;SDS011;18022;45.492;11.548;2022-12-11T04:30:12;1.92;;;1.73;;
31390;SDS011;18022;45.492;11.548;2022-12-11T04:32:40;2.13;;;1.92;;
31390;SDS011;18022;45.492;11.548;2022-12-11T04:35:07;1.92;;;1.70;;
31390;SDS011;18022;45.492;11.548;2022-12-11T04:37:33;2.20;;;2.00;;
31390;SDS011;18022;45.492;11.548;2022-12-11T04:40:00;2.97;;;2.22;;
31390;SDS011;18022;45.492;11.548;2022-12-11T04:42:25;1.73;;;1.52;;
31390;SDS011;18022;45.492;11.548;2022-12-11T04:44:51;1.67;;;1.13;;
31390;SDS011;18022;45.492;11.548;2022-12-11T04:47:17;1.05;;;0.98;;
31390;SDS011;18022;45.492;11.548;2022-12-11T04:49:42;0.70;;;0.70;;
31390;SDS011;18022;45.492;11.548;2022-12-11T04:52:08;0.60;;;0.60;;
31390;SDS011;18022;45.492;11.548;2022-12-11T04:54:34;0.80;;;0.80;;
31390;SDS011;18022;45.492;11.548;2022-12-11T04:57:00;0.80;;;0.60;;
31390;SDS011;18022;45.492;11.548;2022-12-11T04:59:25;1.10;;;0.70;;
31390;SDS011;18022;45.492;11.548;2022-12-11T05:01:51;0.57;;;0.55;;
31390;SDS011;18022;45.492;11.548;2022-12-11T05:04:17;0.70;;;0.70;;
31390;SDS011;18022;45.492;11.548;2022-12-11T05:06:42;0.50;;;0.50;;
31390;SDS011;18022;45.492;11.548;2022-12-11T05:09:11;0.60;;;0.60;;
31390;SDS011;18022;45.492;11.548;2022-12-11T05:11:37;0.60;;;0.60;;
31390;SDS011;18022;45.492;11.548;2022-12-11T05:14:03;0.50;;;0.50;;
31390;SDS011;18022;45.492;11.548;2022-12-11T05:16:29;0.40;;;0.40;;
31390;SDS011;18022;45.492;11.548;2022-12-11T05:18:55;1.65;;;0.70;;
31390;SDS011;18022;45.492;11.548;2022-12-11T05:21:20;1.77;;;0.60;;
31390;SDS011;18022;45.492;11.548;2022-12-11T05:23:46;0.60;;;0.60;;
31390;SDS011;18022;45.492;11.548;2022-12-11T05:26:13;0.50;;;0.50;;
31390;SDS011;18022;45.492;11.548;2022-12-11T05:28:41;1.00;;;0.85;;
31390;SDS011;18022;45.492;11.548;2022-12-11T05:31:10;0.80;;;0.80;;
31390;SDS011;18022;45.492;11.548;2022-12-11T05:33:38;0.85;;;0.85;;
31390;SDS011;18022;45.492;11.548;2022-12-11T05:36:04;0.70;;;0.70;;
31390;SDS011;18022;45.492;11.548;2022-12-11T05:38:31;0.70;;;0.70;;
31390;SDS011;18022;45.492;11.548;2022-12-11T05:40:57;0.70;;;0.68;;
31390;SDS011;18022;45.492;11.548;2022-12-11T05:43:24;0.90;;;0.80;;
31390;SDS011;18022;45.492;11.548;2022-12-11T05:45:51;0.90;;;0.90;;
31390;SDS011;18022;45.492;11.548;2022-12-11T05:48:17;2.53;;;0.80;;
31390;SDS011;18022;45.492;11.548;2022-12-11T05:50:42;1.10;;;1.00;;
31390;SDS011;18022;45.492;11.548;2022-12-11T05:53:08;0.85;;;0.85;;
31390;SDS011;18022;45.492;11.548;2022-12-11T05:55:34;0.95;;;0.90;;
31390;SDS011;18022;45.492;11.548;2022-12-11T05:58:00;0.90;;;0.90;;
31390;SDS011;18022;45.492;11.548;2022-12-11T06:00:25;1.35;;;1.10;;
31390;SDS011;18022;45.492;11.548;2022-12-11T06:02:51;0.98;;;0.90;;
31390;SDS011;18022;45.492;11.548;2022-12-11T06:05:17;1.13;;;1.02;;
31390;SDS011;18022;45.492;11.548;2022-12-11T06:07:42;1.23;;;1.13;;
31390;SDS011;18022;45.492;11.548;2022-12-11T06:10:08;1.20;;;1.10;;
31390;SDS011;18022;45.492;11.548;2022-12-11T06:12:34;1.85;;;1.30;;
31390;SDS011;18022;45.492;11.548;2022-12-11T06:15:00;1.45;;;1.35;;
31390;SDS011;18022;45.492;11.548;2022-12-11T06:17:26;1.33;;;1.23;;
31390;SDS011;18022;45.492;11.548;2022-12-11T06:19:51;1.15;;;0.90;;
31390;SDS011;18022;45.492;11.548;2022-12-11T06:22:17;1.20;;;1.10;;
31390;SDS011;18022;45.492;11.548;2022-12-11T06:24:43;1.40;;;1.30;;
31390;SDS011;18022;45.492;11.548;2022-12-11T06:27:08;0.90;;;0.90;;
31390;SDS011;18022;45.492;11.548;2022-12-11T06:29:34;1.27;;;1.05;;
31390;SDS011;18022;45.492;11.548;2022-12-11T06:32:00;1.20;;;1.10;;
31390;SDS011;18022;45.492;11.548;2022-12-11T06:34:26;1.55;;;1.45;;
31390;SDS011;18022;45.492;11.548;2022-12-11T06:36:51;2.58;;;1.42;;
31390;SDS011;18022;45.492;11.548;2022-12-11T06:39:17;4.53;;;1.02;;
31390;SDS011;18022;45.492;11.548;2022-12-11T06:41:43;1.38;;;1.27;;
31390;SDS011;18022;45.492;11.548;2022-12-11T06:44:08;1.52;;;0.95;;
31390;SDS011;18022;45.492;11.548;2022-12-11T06:46:34;0.90;;;0.90;;
31390;SDS011;18022;45.492;11.548;2022-12-11T06:49:00;1.10;;;1.00;;
31390;SDS011;18022;45.492;11.548;2022-12-11T06:51:26;2.70;;;1.10;;
31390;SDS011;18022;45.492;11.548;2022-12-11T06:53:52;2.00;;;1.52;;
31390;SDS011;18022;45.492;11.548;2022-12-11T06:56:20;1.40;;;1.30;;
31390;SDS011;18022;45.492;11.548;2022-12-11T06:58:47;1.20;;;1.05;;
31390;SDS011;18022;45.492;11.548;2022-12-11T07:01:18;1.20;;;1.10;;
31390;SDS011;18022;45.492;11.548;2022-12-11T07:03:46;1.40;;;1.30;;
31390;SDS011;18022;45.492;11.548;2022-12-11T07:06:13;1.27;;;1.17;;
31390;SDS011;18022;45.492;11.548;2022-12-11T07:08:39;1.00;;;1.00;;
31390;SDS011;18022;45.492;11.548;2022-12-11T07:11:06;1.08;;;0.98;;
31390;SDS011;18022;45.492;11.548;2022-12-11T07:13:33;1.38;;;1.27;;
31390;SDS011;18022;45.492;11.548;2022-12-11T07:16:00;3.05;;;1.95;;
31390;SDS011;18022;45.492;11.548;2022-12-11T07:18:28;1.00;;;0.95;;
31390;SDS011;18022;45.492;11.548;2022-12-11T07:20:58;1.30;;;1.20;;
31390;SDS011;18022;45.492;11.548;2022-12-11T07:23:25;1.30;;;1.20;;
31390;SDS011;18022;45.492;11.548;2022-12-11T07:25:52;11.63;;;6.97;;
31390;SDS011;18022;45.492;11.548;2022-12-11T07:28:18;18.05;;;13.10;;
31390;SDS011;18022;45.492;11.548;2022-12-11T07:30:43;4.85;;;4.55;;
31390;SDS011;18022;45.492;11.548;2022-12-11T07:33:09;2.30;;;2.20;;
31390;SDS011;18022;45.492;11.548;2022-12-11T07:35:35;3.03;;;2.80;;
31390;SDS011;18022;45.492;11.548;2022-12-11T07:38:01;3.00;;;2.80;;
31390;SDS011;18022;45.492;11.548;2022-12-11T07:40:27;4.63;;;4.22;;
31390;SDS011;18022;45.492;11.548;2022-12-11T07:42:53;3.10;;;2.90;;
31390;SDS011;18022;45.492;11.548;2022-12-11T07:45:18;3.17;;;1.15;;
31390;SDS011;18022;45.492;11.548;2022-12-11T07:47:44;1.10;;;1.00;;
31390;SDS011;18022;45.492;11.548;2022-12-11T07:50:10;1.90;;;1.80;;
31390;SDS011;18022;45.492;11.548;2022-12-11T07:52:35;0.98;;;0.98;;
31390;SDS011;18022;45.492;11.548;2022-12-11T07:55:01;2.20;;;1.73;;
31390;SDS011;18022;45.492;11.548;2022-12-11T07:57:27;3.25;;;2.95;;
31390;SDS011;18022;45.492;11.548;2022-12-11T07:59:53;2.20;;;2.10;;
31390;SDS011;18022;45.492;11.548;2022-12-11T08:02:19;6.18;;;5.78;;
31390;SDS011;18022;45.492;11.548;2022-12-11T08:04:46;6.72;;;6.13;;
31390;SDS011;18022;45.492;11.548;2022-12-11T08:07:11;3.85;;;3.55;;
31390;SDS011;18022;45.492;11.548;2022-12-11T08:09:37;4.45;;;4.15;;
31390;SDS011;18022;45.492;11.548;2022-12-11T08:12:03;3.97;;;3.67;;
31390;SDS011;18022;45.492;11.548;2022-12-11T08:14:29;12.60;;;11.50;;
31390;SDS011;18022;45.492;11.548;2022-12-11T08:16:55;20.05;;;17.92;;
31390;SDS011;18022;45.492;11.548;2022-12-11T08:19:22;7.57;;;6.97;;
31390;SDS011;18022;45.492;11.548;2022-12-11T08:21:47;1.30;;;1.15;;
31390;SDS011;18022;45.492;11.548;2022-12-11T08:24:13;1.90;;;1.80;;
31390;SDS011;18022;45.492;11.548;2022-12-11T08:26:44;5.88;;;5.28;;
31390;SDS011;18022;45.492;11.548;2022-12-11T08:29:10;2.13;;;1.70;;
31390;SDS011;18022;45.492;11.548;2022-12-11T08:31:35;2.75;;;2.00;;
31390;SDS011;18022;45.492;11.548;2022-12-11T08:34:04;3.85;;;3.55;;
31390;SDS011;18022;45.492;11.548;2022-12-11T08:36:29;2.72;;;2.42;;
31390;SDS011;18022;45.492;11.548;2022-12-11T08:38:55;3.03;;;2.83;;
31390;SDS011;18022;45.492;11.548;2022-12-11T08:41:25;6.18;;;5.10;;
31390;SDS011;18022;45.492;11.548;2022-12-11T08:43:53;8.52;;;6.75;;
31390;SDS011;18022;45.492;11.548;2022-12-11T08:46:20;7.85;;;7.05;;
31390;SDS011;18022;45.492;11.548;2022-12-11T08:48:48;7.40;;;6.30;;
31390;SDS011;18022;45.492;11.548;2022-12-11T08:51:14;4.20;;;3.80;;
31390;SDS011;18022;45.492;11.548;2022-12-11T08:53:42;6.13;;;4.50;;
31390;SDS011;18022;45.492;11.548;2022-12-11T08:56:09;4.20;;;3.90;;
31390;SDS011;18022;45.492;11.548;2022-12-11T08:58:37;3.53;;;3.10;;
31390;SDS011;18022;45.492;11.548;2022-12-11T09:01:06;1.88;;;1.77;;
31390;SDS011;18022;45.492;11.548;2022-12-11T09:03:34;3.08;;;2.30;;
31390;SDS011;18022;45.492;11.548;2022-12-11T09:06:04;2.70;;;2.50;;
31390;SDS011;18022;45.492;11.548;2022-12-11T09:08:31;2.40;;;2.15;;
31390;SDS011;18022;45.492;11.548;2022-12-11T09:11:01;3.72;;;2.80;;
31390;SDS011;18022;45.492;11.548;2022-12-11T09:13:31;3.35;;;2.40;;
31390;SDS011;18022;45.492;11.548;2022-12-11T09:15:57;3.35;;;2.40;;
31390;SDS011;18022;45.492;11.548;2022-12-11T09:18:23;3.33;;;2.90;;
31390;SDS011;18022;45.492;11.548;2022-12-11T09:20:56;5.72;;;4.80;;
31390;SDS011;18022;45.492;11.548;2022-12-11T09:23:23;3.20;;;2.83;;
31390;SDS011;18022;45.492;11.548;2022-12-11T09:25:49;10.88;;;9.73;;
31390;SDS011;18022;45.492;11.548;2022-12-11T09:28:15;7.72;;;6.93;;
31390;SDS011;18022;45.492;11.548;2022-12-11T09:30:41;6.93;;;6.22;;
31390;SDS011;18022;45.492;11.548;2022-12-11T09:33:07;5.88;;;5.20;;
31390;SDS011;18022;45.492;11.548;2022-12-11T09:35:32;14.43;;;12.93;;
31390;SDS011;18022;45.492;11.548;2022-12-11T09:37:58;1.70;;;1.60;;
31390;SDS011;18022;45.492;11.548;2022-12-11T09:40:24;6.20;;;5.60;;
31390;SDS011;18022;45.492;11.548;2022-12-11T09:42:52;1.90;;;1.77;;
31390;SDS011;18022;45.492;11.548;2022-12-11T09:45:22;3.97;;;3.60;;
31390;SDS011;18022;45.492;11.548;2022-12-11T09:47:51;2.67;;;2.47;;
31390;SDS011;18022;45.492;11.548;2022-12-11T09:50:23;2.55;;;2.30;;
31390;SDS011;18022;45.492;11.548;2022-12-11T09:53:01;3.80;;;2.40;;
31390;SDS011;18022;45.492;11.548;2022-12-11T09:55:38;2.58;;;2.38;;
31390;SDS011;18022;45.492;11.548;2022-12-11T09:58:24;3.28;;;2.72;;
31390;SDS011;18022;45.492;11.548;2022-12-11T10:03:58;5.55;;;4.97;;
31390;SDS011;18022;45.492;11.548;2022-12-11T10:06:37;2.67;;;2.47;;
31390;SDS011;18022;45.492;11.548;2022-12-11T10:17:27;8.90;;;8.00;;
31390;SDS011;18022;45.492;11.548;2022-12-11T10:19:56;11.27;;;9.18;;
31390;SDS011;18022;45.492;11.548;2022-12-11T10:22:38;5.72;;;5.20;;
31390;SDS011;18022;45.492;11.548;2022-12-11T10:25:05;11.95;;;10.75;;
31390;SDS011;18022;45.492;11.548;2022-12-11T10:27:33;17.17;;;14.23;;
31390;SDS011;18022;45.492;11.548;2022-12-11T10:30:12;13.32;;;10.23;;
31390;SDS011;18022;45.492;11.548;2022-12-11T10:32:50;11.80;;;7.68;;
31390;SDS011;18022;45.492;11.548;2022-12-11T10:38:00;19.88;;;14.95;;
31390;SDS011;18022;45.492;11.548;2022-12-11T10:40:40;17.42;;;13.13;;
31390;SDS011;18022;45.492;11.548;2022-12-11T10:43:09;24.63;;;16.95;;
31390;SDS011;18022;45.492;11.548;2022-12-11T10:45:35;14.32;;;10.65;;
31390;SDS011;18022;45.492;11.548;2022-12-11T10:48:10;10.18;;;6.65;;
31390;SDS011;18022;45.492;11.548;2022-12-11T10:50:37;44.03;;;24.45;;
31390;SDS011;18022;45.492;11.548;2022-12-11T10:53:04;17.35;;;11.93;;
31390;SDS011;18022;45.492;11.548;2022-12-11T10:55:32;42.53;;;26.40;;
31390;SDS011;18022;45.492;11.548;2022-12-11T10:58:19;22.90;;;15.90;;
31390;SDS011;18022;45.492;11.548;2022-12-11T11:00:57;18.88;;;12.45;;
31390;SDS011;18022;45.492;11.548;2022-12-11T11:03:29;51.97;;;31.50;;
31390;SDS011;18022;45.492;11.548;2022-12-11T11:06:14;5.70;;;4.80;;
31390;SDS011;18022;45.492;11.548;2022-12-11T11:08:43;19.20;;;13.77;;
31390;SDS011;18022;45.492;11.548;2022-12-11T11:11:52;29.63;;;20.67;;
31390;SDS011;18022;45.492;11.548;2022-12-11T11:14:03;6.13;;;5.38;;
31390;SDS011;18022;45.492;11.548;2022-12-11T11:16:46;20.20;;;14.52;;
31390;SDS011;18022;45.492;11.548;2022-12-11T11:19:24;5.88;;;4.75;;
31390;SDS011;18022;45.492;11.548;2022-12-11T11:21:54;3.60;;;3.30;;
31390;SDS011;18022;45.492;11.548;2022-12-11T11:25:14;2.40;;;2.20;;
31390;SDS011;18022;45.492;11.548;2022-12-11T11:30:05;1.80;;;1.70;;
31390;SDS011;18022;45.492;11.548;2022-12-11T11:32:43;3.83;;;2.53;;
31390;SDS011;18022;45.492;11.548;2022-12-11T11:37:42;4.20;;;3.90;;
31390;SDS011;18022;45.492;11.548;2022-12-11T11:40:18;5.50;;;4.95;;
31390;SDS011;18022;45.492;11.548;2022-12-11T11:45:15;3.67;;;3.10;;
31390;SDS011;18022;45.492;11.548;2022-12-11T11:47:57;8.30;;;7.10;;
31390;SDS011;18022;45.492;11.548;2022-12-11T11:50:44;3.25;;;3.00;;
31390;SDS011;18022;45.492;11.548;2022-12-11T11:53:34;4.35;;;3.90;;
31390;SDS011;18022;45.492;11.548;2022-12-11T12:01:20;2.38;;;2.13;;
31390;SDS011;18022;45.492;11.548;2022-12-11T12:03:46;1.98;;;1.60;;
31390;SDS011;18022;45.492;11.548;2022-12-11T12:09:16;6.22;;;4.10;;
31390;SDS011;18022;45.492;11.548;2022-12-11T12:14:47;1.95;;;1.40;;
31390;SDS011;18022;45.492;11.548;2022-12-11T12:17:33;10.35;;;5.90;;
31390;SDS011;18022;45.492;11.548;2022-12-11T12:20:19;4.85;;;3.05;;
31390;SDS011;18022;45.492;11.548;2022-12-11T12:23:19;3.03;;;2.25;;
31390;SDS011;18022;45.492;11.548;2022-12-11T12:34:07;2.13;;;1.77;;
31390;SDS011;18022;45.492;11.548;2022-12-11T12:39:10;2.85;;;1.67;;
31390;SDS011;18022;45.492;11.548;2022-12-11T12:41:54;12.38;;;7.55;;
31390;SDS011;18022;45.492;11.548;2022-12-11T12:44:26;3.38;;;2.80;;
31390;SDS011;18022;45.492;11.548;2022-12-11T12:47:02;5.18;;;2.70;;
31390;SDS011;18022;45.492;11.548;2022-12-11T12:52:00;69.43;;;38.33;;
31390;SDS011;18022;45.492;11.548;2022-12-11T12:54:27;70.75;;;40.13;;
31390;SDS011;18022;45.492;11.548;2022-12-11T12:56:56;75.57;;;52.05;;
31390;SDS011;18022;45.492;11.548;2022-12-11T12:59:23;20.23;;;14.02;;
31390;SDS011;18022;45.492;11.548;2022-12-11T13:01:52;6.32;;;5.00;;
31390;SDS011;18022;45.492;11.548;2022-12-11T13:04:53;4.05;;;3.65;;
31390;SDS011;18022;45.492;11.548;2022-12-11T13:07:20;3.75;;;3.45;;
31390;SDS011;18022;45.492;11.548;2022-12-11T13:10:03;4.10;;;2.63;;
31390;SDS011;18022;45.492;11.548;2022-12-11T13:12:49;21.75;;;10.43;;
31390;SDS011;18022;45.492;11.548;2022-12-11T13:17:53;8.93;;;5.60;;
31390;SDS011;18022;45.492;11.548;2022-12-11T13:20:20;3.72;;;2.28;;
31390;SDS011;18022;45.492;11.548;2022-12-11T13:23:06;4.13;;;2.47;;
31390;SDS011;18022;45.492;11.548;2022-12-11T13:25:52;2.80;;;2.42;;
31390;SDS011;18022;45.492;11.548;2022-12-11T13:31:03;2.72;;;2.30;;
31390;SDS011;18022;45.492;11.548;2022-12-11T13:34:04;4.43;;;3.03;;
31390;SDS011;18022;45.492;11.548;2022-12-11T13:36:37;8.52;;;6.13;;
31390;SDS011;18022;45.492;11.548;2022-12-11T13:39:14;6.22;;;3.90;;
31390;SDS011;18022;45.492;11.548;2022-12-11T13:41:50;2.65;;;1.83;;
31390;SDS011;18022;45.492;11.548;2022-12-11T13:44:26;2.03;;;1.65;;
31390;SDS011;18022;45.492;11.548;2022-12-11T13:46:55;1.63;;;1.52;;
31390;SDS011;18022;45.492;11.548;2022-12-11T13:49:27;3.92;;;3.00;;
31390;SDS011;18022;45.492;11.548;2022-12-11T13:52:03;4.13;;;3.03;;
31390;SDS011;18022;45.492;11.548;2022-12-11T13:54:30;6.43;;;3.90;;
31390;SDS011;18022;45.492;11.548;2022-12-11T13:57:02;5.15;;;3.17;;
31390;SDS011;18022;45.492;11.548;2022-12-11T14:02:40;11.77;;;10.30;;
31390;SDS011;18022;45.492;11.548;2022-12-11T14:04:47;5.25;;;4.38;;
31390;SDS011;18022;45.492;11.548;2022-12-11T14:07:21;2.17;;;1.98;;
31390;SDS011;18022;45.492;11.548;2022-12-11T14:09:55;6.68;;;4.78;;
31390;SDS011;18022;45.492;11.548;2022-12-11T14:12:25;4.88;;;3.03;;
31390;SDS011;18022;45.492;11.548;2022-12-11T14:14:54;2.97;;;2.70;;
31390;SDS011;18022;45.492;11.548;2022-12-11T14:17:24;2.92;;;2.38;;
31390;SDS011;18022;45.492;11.548;2022-12-11T14:19:52;4.40;;;4.00;;
31390;SDS011;18022;45.492;11.548;2022-12-11T14:22:24;5.90;;;4.78;;
31390;SDS011;18022;45.492;11.548;2022-12-11T14:24:59;6.00;;;5.40;;
31390;SDS011;18022;45.492;11.548;2022-12-11T14:27:27;3.85;;;3.55;;
31390;SDS011;18022;45.492;11.548;2022-12-11T14:29:54;2.72;;;2.53;;
31390;SDS011;18022;45.492;11.548;2022-12-11T14:32:36;2.53;;;2.25;;
31390;SDS011;18022;45.492;11.548;2022-12-11T14:35:09;2.38;;;2.17;;
31390;SDS011;18022;45.492;11.548;2022-12-11T14:37:48;36.05;;;23.10;;
31390;SDS011;18022;45.492;11.548;2022-12-11T14:40:17;54.05;;;31.17;;
31390;SDS011;18022;45.492;11.548;2022-12-11T14:42:53;19.85;;;11.38;;
31390;SDS011;18022;45.492;11.548;2022-12-11T14:48:00;11.30;;;8.05;;
31390;SDS011;18022;45.492;11.548;2022-12-11T14:53:01;5.10;;;4.60;;
31390;SDS011;18022;45.492;11.548;2022-12-11T14:55:31;7.20;;;6.45;;
31390;SDS011;18022;45.492;11.548;2022-12-11T14:58:05;3.95;;;3.30;;
31390;SDS011;18022;45.492;11.548;2022-12-11T15:00:41;27.90;;;16.98;;
31390;SDS011;18022;45.492;11.548;2022-12-11T15:05:46;13.25;;;10.38;;
31390;SDS011;18022;45.492;11.548;2022-12-11T15:08:33;9.35;;;7.03;;
31390;SDS011;18022;45.492;11.548;2022-12-11T15:11:10;7.50;;;5.47;;
31390;SDS011;18022;45.492;11.548;2022-12-11T15:16:16;3.80;;;2.90;;
31390;SDS011;18022;45.492;11.548;2022-12-11T15:18:46;38.20;;;19.88;;
31390;SDS011;18022;45.492;11.548;2022-12-11T15:21:16;27.58;;;13.73;;
31390;SDS011;18022;45.492;11.548;2022-12-11T15:23:48;21.88;;;8.27;;
31390;SDS011;18022;45.492;11.548;2022-12-11T15:26:20;5.60;;;4.03;;
31390;SDS011;18022;45.492;11.548;2022-12-11T15:29:23;7.47;;;3.80;;
31390;SDS011;18022;45.492;11.548;2022-12-11T15:34:46;4.90;;;3.33;;
31390;SDS011;18022;45.492;11.548;2022-12-11T15:37:23;4.15;;;3.20;;
31390;SDS011;18022;45.492;11.548;2022-12-11T15:39:57;3.10;;;2.80;;
31390;SDS011;18022;45.492;11.548;2022-12-11T15:42:31;3.05;;;2.75;;
31390;SDS011;18022;45.492;11.548;2022-12-11T15:45:04;4.00;;;2.45;;
31390;SDS011;18022;45.492;11.548;2022-12-11T15:47:31;3.90;;;3.53;;
31390;SDS011;18022;45.492;11.548;2022-12-11T15:52:44;3.20;;;2.67;;
31390;SDS011;18022;45.492;11.548;2022-12-11T15:55:12;2.92;;;2.70;;
31390;SDS011;18022;45.492;11.548;2022-12-11T15:57:42;3.33;;;3.03;;
31390;SDS011;18022;45.492;11.548;2022-12-11T16:00:13;5.93;;;4.03;;
31390;SDS011;18022;45.492;11.548;2022-12-11T16:02:40;7.38;;;4.95;;
31390;SDS011;18022;45.492;11.548;2022-12-11T16:05:06;7.75;;;6.13;;
31390;SDS011;18022;45.492;11.548;2022-12-11T16:07:32;12.05;;;9.02;;
31390;SDS011;18022;45.492;11.548;2022-12-11T16:09:58;7.05;;;5.03;;
31390;SDS011;18022;45.492;11.548;2022-12-11T16:12:24;6.35;;;5.38;;
31390;SDS011;18022;45.492;11.548;2022-12-11T16:14:49;7.35;;;4.95;;
31390;SDS011;18022;45.492;11.548;2022-12-11T16:17:15;5.50;;;3.92;;
31390;SDS011;18022;45.492;11.548;2022-12-11T16:19:41;4.10;;;2.88;;
31390;SDS011;18022;45.492;11.548;2022-12-11T16:22:08;5.78;;;4.22;;
31390;SDS011;18022;45.492;11.548;2022-12-11T16:24:35;17.35;;;9.52;;
31390;SDS011;18022;45.492;11.548;2022-12-11T16:27:02;20.95;;;11.13;;
31390;SDS011;18022;45.492;11.548;2022-12-11T16:29:32;18.05;;;11.07;;